地図

経路データ

SID SEASON NUMBER BASIN SUBBASIN NAME ISO_TIME NATURE LAT LON WMO_WIND WMO_PRES WMO_AGENCY TRACK_TYPE DIST2LAND LANDFALL IFLAG USA_AGENCY USA_ATCF_ID USA_LAT USA_LON USA_RECORD USA_STATUS USA_WIND USA_PRES USA_SSHS USA_R34_NE USA_R34_SE USA_R34_SW USA_R34_NW USA_R50_NE USA_R50_SE USA_R50_SW USA_R50_NW USA_R64_NE USA_R64_SE USA_R64_SW USA_R64_NW USA_POCI USA_ROCI USA_RMW USA_EYE TOKYO_LAT TOKYO_LON TOKYO_GRADE TOKYO_WIND TOKYO_PRES TOKYO_R50_DIR TOKYO_R50_LONG TOKYO_R50_SHORT TOKYO_R30_DIR TOKYO_R30_LONG TOKYO_R30_SHORT TOKYO_LAND CMA_LAT CMA_LON CMA_CAT CMA_WIND CMA_PRES HKO_LAT HKO_LON HKO_CAT HKO_WIND HKO_PRES NEWDELHI_LAT NEWDELHI_LON NEWDELHI_GRADE NEWDELHI_WIND NEWDELHI_PRES NEWDELHI_CI NEWDELHI_DP NEWDELHI_POCI REUNION_LAT REUNION_LON REUNION_TYPE REUNION_WIND REUNION_PRES REUNION_TNUM REUNION_CI REUNION_RMW REUNION_R34_NE REUNION_R34_SE REUNION_R34_SW REUNION_R34_NW REUNION_R50_NE REUNION_R50_SE REUNION_R50_SW REUNION_R50_NW REUNION_R64_NE REUNION_R64_SE REUNION_R64_SW REUNION_R64_NW BOM_LAT BOM_LON BOM_TYPE BOM_WIND BOM_PRES BOM_TNUM BOM_CI BOM_RMW BOM_R34_NE BOM_R34_SE BOM_R34_SW BOM_R34_NW BOM_R50_NE BOM_R50_SE BOM_R50_SW BOM_R50_NW BOM_R64_NE BOM_R64_SE BOM_R64_SW BOM_R64_NW BOM_ROCI BOM_POCI BOM_EYE BOM_POS_METHOD BOM_PRES_METHOD NADI_LAT NADI_LON NADI_CAT NADI_WIND NADI_PRES WELLINGTON_LAT WELLINGTON_LON WELLINGTON_WIND WELLINGTON_PRES DS824_LAT DS824_LON DS824_STAGE DS824_WIND DS824_PRES TD9636_LAT TD9636_LON TD9636_STAGE TD9636_WIND TD9636_PRES TD9635_LAT TD9635_LON TD9635_WIND TD9635_PRES TD9635_ROCI NEUMANN_LAT NEUMANN_LON NEUMANN_CLASS NEUMANN_WIND NEUMANN_PRES MLC_LAT MLC_LON MLC_CLASS MLC_WIND MLC_PRES USA_GUST BOM_GUST BOM_GUST_PER REUNION_GUST REUNION_GUST_PER USA_SEAHGT USA_SEARAD_NE USA_SEARAD_SE USA_SEARAD_SW USA_SEARAD_NW STORM_SPEED STORM_DIR
1957196N12252 1957 38 EP MM KANOA 1957-07-15 00:00:00 TS 11.9000 -108.200 75 hurdat_epa main 876 876 O________OO___ hurdat_epa EP011957 11.9000 -108.200 HU 75 1 11.9000 -108.200 TC 50 11.9000 -108.200 4 14 266
1957196N12252 1957 38 EP MM KANOA 1957-07-15 03:00:00 TS 11.8473 -108.913 main 930 930 P________PP___ EP011957 11.8404 -108.925 HU 75 1 11.8404 -108.925 TC 50 11.8748 -108.864 4 14 266
1957196N12252 1957 38 EP MM KANOA 1957-07-15 06:00:00 TS 11.8098 -109.583 75 hurdat_epa main 974 974 O________OP___ hurdat_epa EP011957 11.8000 -109.600 HU 75 1 11.8000 -109.600 TC 50 11.8490 -109.513 4 12 268
1957196N12252 1957 38 EP MM KANOA 1957-07-15 09:00:00 TS 11.7986 -110.176 main 1010 1010 P________PP___ EP011957 11.7923 -110.187 HU 75 1 11.7923 -110.187 TC 52 11.8237 -110.130 4 11 269
1957196N12252 1957 38 EP MM KANOA 1957-07-15 12:00:00 TS 11.8000 -110.700 75 hurdat_epa main 1041 1041 O________OO___ hurdat_epa EP011957 11.8000 -110.700 HU 75 1 11.8000 -110.700 TC 55 11.8000 -110.700 4 10 270
1957196N12252 1957 38 EP MM KANOA 1957-07-15 15:00:00 TS 11.8016 -111.174 main 1075 1075 P________PP___ EP011957 11.8074 -111.165 HU 75 1 11.8074 -111.165 TC 57 11.7785 -111.212 4 9 269
1957196N12252 1957 38 EP MM KANOA 1957-07-15 18:00:00 TS 11.7914 -111.615 75 hurdat_epa main 1102 1102 O________OP___ hurdat_epa EP011957 11.8000 -111.600 HU 75 1 11.8000 -111.600 TC 60 11.7569 -111.675 4 9 267
1957196N12252 1957 38 EP MM KANOA 1957-07-15 21:00:00 TS 11.7523 -112.066 main 1138 1138 P________PP___ EP011957 11.7575 -112.058 HU 75 1 11.7575 -112.058 TC 62 11.7318 -112.100 4 9 264
1957196N12252 1957 38 EP MM KANOA 1957-07-16 00:00:00 TS 11.7000 -112.500 75 hurdat_epa main 1176 1176 O________OO___ hurdat_epa EP011957 11.7000 -112.500 HU 75 1 11.7000 -112.500 TC 65 11.7000 -112.500 4 8 263
1957196N12252 1957 38 EP MM KANOA 1957-07-16 03:00:00 TS 11.6505 -112.907 main 1207 1207 P________PP___ EP011957 11.6499 -112.915 HU 75 1 11.6499 -112.915 TC 65 11.6526 -112.876 4 8 263
1957196N12252 1957 38 EP MM KANOA 1957-07-16 06:00:00 TS 11.5999 -113.287 75 hurdat_epa main 1245 1245 O________OP___ hurdat_epa EP011957 11.6000 -113.300 HU 75 1 11.6000 -113.300 TC 65 11.5993 -113.235 4 7 262
1957196N12252 1957 38 EP MM KANOA 1957-07-16 09:00:00 TS 11.5491 -113.628 main 1276 1276 P________PP___ EP011957 11.5498 -113.635 HU 75 1 11.5498 -113.635 TC 67 11.5464 -113.601 4 7 262
1957196N12252 1957 38 EP MM KANOA 1957-07-16 12:00:00 TS 11.5000 -114.000 75 hurdat_epa main 1307 1307 O________OO___ hurdat_epa EP011957 11.5000 -114.000 HU 75 1 11.5000 -114.000 TC 70 11.5000 -114.000 4 8 263
1957196N12252 1957 38 EP MM KANOA 1957-07-16 15:00:00 TS 11.4452 -114.476 main 1353 1353 P________PP___ EP011957 11.4425 -114.478 HU 75 1 11.4425 -114.478 TC 70 11.4557 -114.472 4 10 264
1957196N12252 1957 38 EP MM KANOA 1957-07-16 18:00:00 TS 11.4040 -114.996 75 hurdat_epa main 1391 1391 O________OP___ hurdat_epa EP011957 11.4000 -115.000 HU 75 1 11.4000 -115.000 TC 70 11.4202 -114.978 4 10 267
1957196N12252 1957 38 EP MM KANOA 1957-07-16 21:00:00 TS 11.3879 -115.505 main 1412 1412 P________PP___ EP011957 11.3850 -115.507 HU 75 1 11.3850 -115.507 TC 70 11.3995 -115.494 4 10 270
1957196N12252 1957 38 EP MM KANOA 1957-07-17 00:00:00 TS 11.4000 -116.000 75 hurdat_epa main 1435 1435 O________OO___ hurdat_epa EP011957 11.4000 -116.000 HU 75 1 11.4000 -116.000 TC 70 11.4000 -116.000 4 9 273
1957196N12252 1957 38 EP MM KANOA 1957-07-17 03:00:00 TS 11.4388 -116.462 main 1459 1454 P________PP___ EP011957 11.4424 -116.457 HU 75 1 11.4424 -116.457 TC 70 11.4242 -116.480 4 9 276
1957196N12252 1957 38 EP MM KANOA 1957-07-17 06:00:00 TS 11.4940 -116.909 75 hurdat_epa main 1470 1470 O________OP___ hurdat_epa EP011957 11.5000 -116.900 HU 75 1 11.5000 -116.900 TC 70 11.4698 -116.945 4 9 277
1957196N12252 1957 38 EP MM KANOA 1957-07-17 09:00:00 TS 11.5461 -117.369 main 1497 1487 P________PP___ EP011957 11.5500 -117.365 HU 75 1 11.5500 -117.365 TC 72 11.5305 -117.387 4 9 277
1957196N12252 1957 38 EP MM KANOA 1957-07-17 12:00:00 TS 11.6000 -117.800 75 hurdat_epa main 1510 1510 O________OO___ hurdat_epa EP011957 11.6000 -117.800 HU 75 1 11.6000 -117.800 TC 75 11.6000 -117.800 4 8 277
1957196N12252 1957 38 EP MM KANOA 1957-07-17 15:00:00 TS 11.6474 -118.166 main 1534 1524 P________PP___ EP011957 11.6424 -118.165 HU 75 1 11.6424 -118.165 TC 75 11.6674 -118.171 4 7 279
1957196N12252 1957 38 EP MM KANOA 1957-07-17 18:00:00 TS 11.7084 -118.503 75 hurdat_epa main 1543 1543 O________OP___ hurdat_epa EP011957 11.7000 -118.500 HU 75 1 11.7000 -118.500 TC 75 11.7420 -118.515 4 7 283
1957196N12252 1957 38 EP MM KANOA 1957-07-17 21:00:00 TS 11.8041 -118.844 main 1552 1552 P________PP___ EP011957 11.7999 -118.842 HU 75 1 11.7999 -118.842 TC 75 11.8206 -118.852 4 7 286
1957196N12252 1957 38 EP MM KANOA 1957-07-18 00:00:00 TS 11.9000 -119.200 75 hurdat_epa main 1569 1569 O________OO___ hurdat_epa EP011957 11.9000 -119.200 HU 75 1 11.9000 -119.200 TC 75 11.9000 -119.200 4 7 281
1957196N12252 1957 38 EP MM KANOA 1957-07-18 03:00:00 TS 11.9517 -119.590 main 1587 1587 P________PP___ EP011957 11.9500 -119.593 HU 75 1 11.9500 -119.593 TC 75 11.9586 -119.578 4 8 278
1957196N12252 1957 38 EP MM KANOA 1957-07-18 06:00:00 TS 12.0040 -119.994 75 hurdat_epa main 1615 1615 O________OP___ hurdat_epa EP011957 12.0000 -120.000 HU 75 1 12.0000 -120.000 TC 75 12.0198 -119.970 4 8 280
1957196N12252 1957 38 EP MM KANOA 1957-07-18 09:00:00 TS 12.0871 -120.390 main 1634 1634 P________PP___ EP011957 12.0849 -120.393 HU 75 1 12.0849 -120.393 TC 75 12.0961 -120.378 4 8 284
1957196N12252 1957 38 EP MM KANOA 1957-07-18 12:00:00 TS 12.2000 -120.800 75 hurdat_epa main 1655 1655 O________OO___ hurdat_epa EP011957 12.2000 -120.800 HU 75 1 12.2000 -120.800 TC 75 12.2000 -120.800 4 9 287
1957196N12252 1957 38 EP MM KANOA 1957-07-18 15:00:00 TS 12.3388 -121.240 main 1676 1675 P________PP___ EP011957 12.3350 -121.243 HU 75 1 12.3350 -121.243 TC 75 12.3542 -121.231 4 9 289
1957196N12252 1957 38 EP MM KANOA 1957-07-18 18:00:00 TS 12.5070 -121.695 75 hurdat_epa main 1697 1694 O________OP___ hurdat_epa EP011957 12.5000 -121.700 HU 75 1 12.5000 -121.700 TC 75 12.5348 -121.677 4 10 293
1957196N12252 1957 38 EP MM KANOA 1957-07-18 21:00:00 TS 12.7105 -122.141 main 1704 1702 P________PP___ EP011957 12.7074 -122.142 HU 75 1 12.7074 -122.142 TC 75 12.7229 -122.135 4 10 294
1957196N12252 1957 38 EP MM KANOA 1957-07-19 00:00:00 TS 12.9000 -122.600 75 hurdat_epa main 1719 1719 O________OO___ hurdat_epa EP011957 12.9000 -122.600 HU 75 1 12.9000 -122.600 TC 75 12.9000 -122.600 4 10 288
1957196N12252 1957 38 EP MM KANOA 1957-07-19 03:00:00 TS 13.0122 -123.094 main 1745 1745 P________PP___ EP011957 13.0075 -123.100 HU 75 1 13.0075 -123.100 TC 75 13.0311 -123.068 4 10 282
1957196N12252 1957 38 EP MM KANOA 1957-07-19 06:00:00 TS 13.1099 -123.589 75 hurdat_epa main 1772 1770 O________OP___ hurdat_epa EP011957 13.1000 -123.600 HU 75 1 13.1000 -123.600 TC 75 13.1497 -123.543 4 10 284
1957196N12252 1957 38 EP MM KANOA 1957-07-19 09:00:00 TS 13.2476 -124.050 main 1799 1791 P________PP___ EP011957 13.2424 -124.058 HU 75 1 13.2424 -124.058 TC 75 13.2685 -124.021 4 9 288
1957196N12252 1957 38 EP MM KANOA 1957-07-19 12:00:00 TS 13.4000 -124.500 75 hurdat_epa main 1813 1813 O________OO___ hurdat_epa EP011957 13.4000 -124.500 HU 75 1 13.4000 -124.500 TC 75 13.4000 -124.500 4 9 289
1957196N12252 1957 38 EP MM KANOA 1957-07-19 15:00:00 TS 13.5452 -124.952 main 1842 1835 P________PP___ EP011957 13.5424 -124.943 HU 75 1 13.5424 -124.943 TC 75 13.5564 -124.987 4 9 289
1957196N12252 1957 38 EP MM KANOA 1957-07-19 18:00:00 TS 13.7055 -125.415 75 hurdat_epa main 1858 1858 O________OP___ hurdat_epa EP011957 13.7000 -125.400 HU 75 1 13.7000 -125.400 TC 75 13.7274 -125.473 4 10 291
1957196N12252 1957 38 EP MM KANOA 1957-07-19 21:00:00 TS 13.8959 -125.915 main 1882 1882 P________PP___ EP011957 13.8925 -125.907 HU 75 1 13.8925 -125.907 TC 75 13.9096 -125.947 4 10 292
1957196N12252 1957 38 EP MM KANOA 1957-07-20 00:00:00 TS 14.1000 -126.400 75 hurdat_epa main 1907 1907 O________OO___ hurdat_epa EP011957 14.1000 -126.400 HU 75 1 14.1000 -126.400 TC 75 14.1000 -126.400 4 10 295
1957196N12252 1957 38 EP MM KANOA 1957-07-20 03:00:00 TS 14.2984 -126.816 main 1925 1925 P________PP___ EP011957 14.2999 -126.815 HU 75 1 14.2999 -126.815 TC 75 14.2924 -126.818 4 9 297
1957196N12252 1957 38 EP MM KANOA 1957-07-20 06:00:00 TS 14.4984 -127.203 75 hurdat_epa main 1941 1939 O________OP___ hurdat_epa EP011957 14.5000 -127.200 HU 75 1 14.5000 -127.200 TC 75 14.4919 -127.215 4 9 298
1957196N12252 1957 38 EP MM KANOA 1957-07-20 09:00:00 TS 14.6990 -127.601 main 1951 1949 P________PP___ EP011957 14.6999 -127.600 HU 75 1 14.6999 -127.600 TC 72 14.6955 -127.605 4 9 298
1957196N12252 1957 38 EP MM KANOA 1957-07-20 12:00:00 TS 14.9000 -128.000 75 hurdat_epa main 1961 1960 O________OO___ hurdat_epa EP011957 14.9000 -128.000 HU 75 1 14.9000 -128.000 TC 70 14.9000 -128.000 4 9 298
1957196N12252 1957 38 EP MM KANOA 1957-07-20 15:00:00 TS 15.1005 -128.388 main 1973 1972 P________PP___ EP011957 15.0999 -128.393 HU 75 1 15.0999 -128.393 TC 70 15.1031 -128.370 4 9 298
1957196N12252 1957 38 EP MM KANOA 1957-07-20 18:00:00 TS 15.3012 -128.791 75 hurdat_epa main 1986 1985 O________OP___ hurdat_epa EP011957 15.3000 -128.800 HU 75 1 15.3000 -128.800 TC 70 15.3060 -128.753 4 9 297
1957196N12252 1957 38 EP MM KANOA 1957-07-20 21:00:00 TS 15.5009 -129.201 main 2000 1999 P________PP___ EP011957 15.4997 -129.205 HU 75 1 15.4997 -129.205 TC 70 15.5059 -129.185 4 10 294
1957196N12252 1957 38 EP MM KANOA 1957-07-21 00:00:00 TS 15.7000 -129.700 75 hurdat_epa main 2022 2022 O________OO___ hurdat_epa EP011957 15.7000 -129.700 HU 75 1 15.7000 -129.700 TC 70 15.7000 -129.700 4 12 290
1957196N12252 1957 38 EP MM KANOA 1957-07-21 03:00:00 TS 15.9027 -130.358 main 2061 2061 P________PP___ EP011957 15.9075 -130.355 HU 75 1 15.9075 -130.355 TC 70 15.8834 -130.371 4 14 286
1957196N12252 1957 38 EP MM KANOA 1957-07-21 06:00:00 TS 16.0918 -131.104 75 hurdat_epa main 2102 2102 O________OP___ hurdat_epa EP011957 16.1000 -131.100 HU 75 1 16.1000 -131.100 TC 70 16.0592 -131.120 4 15 283
1957196N12252 1957 38 EP MM KANOA 1957-07-21 09:00:00 TS 16.2462 -131.881 main 2161 2154 P________PP___ EP011957 16.2502 -131.880 HU 75 1 16.2502 -131.880 TC 70 16.2302 -131.884 4 15 282
1957196N12252 1957 38 EP MM KANOA 1957-07-21 12:00:00 TS 16.4000 -132.600 75 hurdat_epa main 2205 2205 O________OO___ hurdat_epa EP011957 16.4000 -132.600 HU 75 1 16.4000 -132.600 TC 70 16.4000 -132.600 4 13 286
1957196N12252 1957 38 EP MM KANOA 1957-07-21 15:00:00 TS 16.5968 -133.138 main 2234 2234 P________PP___ EP011957 16.5995 -133.130 HU 75 1 16.5995 -133.130 TC 70 16.5857 -133.171 4 11 292
1957196N12252 1957 38 EP MM KANOA 1957-07-21 18:00:00 TS 16.7941 -133.618 75 hurdat_epa main 2259 2202 O________OP___ hurdat_epa EP011957 16.8000 -133.600 HU 75 1 16.8000 -133.600 TC 70 16.7706 -133.688 4 10 291
1957196N12252 1957 38 EP MM KANOA 1957-07-21 21:00:00 TS 16.9609 -134.145 main 2202 2137 P________PP___ EP011957 16.9648 -134.135 HU 75 1 16.9648 -134.135 TC 70 16.9452 -134.186 4 11 286
1957196N12252 1957 38 EP MM KANOA 1957-07-22 00:00:00 TS 17.1000 -134.700 75 hurdat_epa main 2137 2073 O________OO___ hurdat_epa EP011957 17.1000 -134.700 HU 75 1 17.1000 -134.700 TC 70 17.1000 -134.700 4 11 283
1957196N12252 1957 38 EP MM KANOA 1957-07-22 03:00:00 TS 17.2110 -135.291 main 2073 2008 P________PP___ EP011957 17.2074 -135.293 HU 75 1 17.2074 -135.293 TC 70 17.2256 -135.287 4 12 280
1957196N12252 1957 38 EP MM KANOA 1957-07-22 06:00:00 TS 17.3060 -135.899 75 hurdat_epa main 2008 1943 O________OP___ hurdat_epa EP011957 17.3000 -135.900 HU 75 1 17.3000 -135.900 TC 70 17.3299 -135.893 4 12 279
1957196N12252 1957 38 EP MM KANOA 1957-07-22 09:00:00 TS 17.4038 -136.507 main 1943 1879 P________PP___ EP011957 17.3999 -136.508 HU 75 1 17.3999 -136.508 TC 70 17.4193 -136.502 4 12 280
1957196N12252 1957 38 EP MM KANOA 1957-07-22 12:00:00 TS 17.5000 -137.100 75 hurdat_epa main 1879 1824 O________OO___ hurdat_epa EP011957 17.5000 -137.100 HU 75 1 17.5000 -137.100 TC 70 17.5000 -137.100 4 11 280
1957196N12252 1957 38 EP MM KANOA 1957-07-22 15:00:00 TS 17.6029 -137.656 main 1814 1760 P________PP___ EP011957 17.6073 -137.658 HU 75 1 17.6073 -137.658 TC 70 17.5853 -137.652 4 11 280
1957196N12252 1957 38 EP MM KANOA 1957-07-22 18:00:00 TS 17.6927 -138.199 75 hurdat_epa main 1760 1706 O________OP___ hurdat_epa EP011957 17.7000 -138.200 HU 75 1 17.7000 -138.200 TC 70 17.6637 -138.193 4 10 278
1957196N12252 1957 38 EP MM KANOA 1957-07-22 21:00:00 TS 17.7529 -138.741 main 1706 1643 P________PP___ EP011957 17.7573 -138.743 HU 75 1 17.7573 -138.743 TC 70 17.7353 -138.737 4 11 276
1957196N12252 1957 38 EP MM KANOA 1957-07-23 00:00:00 TS 17.8000 -139.300 75 hurdat_epa main 1643 1580 O________OO___ hurdat_epa EP011957 17.8000 -139.300 HU 75 1 17.8000 -139.300 TC 70 17.8000 -139.300 4 11 275
1957196N12252 1957 38 EP MM KANOA 1957-07-23 03:00:00 TS 17.8480 -139.891 main 1580 1516 P________PP___ EP011957 17.8498 -139.885 HU 75 1 17.8498 -139.885 TC 70 17.8409 -139.916 4 12 275
1957196N12252 1957 38 EP CP KANOA 1957-07-23 06:00:00 TS 17.8955 -140.510 75 hurdat_epa main 1516 1453 O________OP___ hurdat_epa EP011957 17.9000 -140.500 HU 75 1 17.9000 -140.500 TC 70 17.8775 -140.551 4 12 274
1957196N12252 1957 38 EP CP KANOA 1957-07-23 09:00:00 TS 17.9331 -141.163 main 1443 1378 P________PP___ EP011957 17.9350 -141.158 HU 75 1 17.9350 -141.158 TC 67 17.9253 -141.185 4 12 275
1957196N12252 1957 38 EP CP KANOA 1957-07-23 12:00:00 TS 18.0000 -141.800 75 hurdat_epa main 1378 1324 O________OO___ hurdat_epa EP011957 18.0000 -141.800 HU 75 1 18.0000 -141.800 TC 65 18.0000 -141.800 4 12 280
1957196N12252 1957 38 EP CP KANOA 1957-07-23 15:00:00 TS 18.1352 -142.371 main 1314 1258 P________PP___ EP011957 18.1347 -142.365 HU 75 1 18.1347 -142.365 TC 64 18.1371 -142.395 4 11 286
1957196N12252 1957 38 EP CP KANOA 1957-07-23 18:00:00 TS 18.2999 -142.913 75 hurdat_epa main 1258 1203 O________OP___ hurdat_epa EP011957 18.3000 -142.900 HU 75 1 18.3000 -142.900 TC 64 18.2997 -142.967 4 11 287
1957196N12252 1957 38 EP CP KANOA 1957-07-23 21:00:00 TS 18.4645 -143.479 main 1193 1139 P________PP___ EP011957 18.4650 -143.472 HU 75 1 18.4650 -143.472 TC 59 18.4623 -143.505 4 11 286
1957196N12252 1957 38 EP CP KANOA 1957-07-24 00:00:00 TS 18.6000 -144.000 75 hurdat_epa main 1139 1096 O________OO___ hurdat_epa EP011957 18.6000 -144.000 HU 75 1 18.6000 -144.000 TC 55 18.6000 -144.000 4 9 283
1957196N12252 1957 38 EP CP KANOA 1957-07-24 03:00:00 TS 18.6666 -144.429 main 1096 1054 P________PP___ EP011957 18.6648 -144.423 HU 75 1 18.6648 -144.423 TC 52 18.6741 -144.456 4 8 278
1957196N12252 1957 38 EP CP KANOA 1957-07-24 06:00:00 TS 18.7044 -144.814 75 hurdat_epa main 1054 1012 O________OP___ hurdat_epa EP011957 18.7000 -144.800 HU 75 1 18.7000 -144.800 TC 50 18.7218 -144.868 4 8 276
1957196N12252 1957 38 EP CP KANOA 1957-07-24 09:00:00 TS 18.7517 -145.221 main 1011 969 P________PP___ EP011957 18.7500 -145.215 HU 75 1 18.7500 -145.215 TC 47 18.7586 -145.246 4 8 277
1957196N12252 1957 38 EP CP KANOA 1957-07-24 12:00:00 TS 18.8000 -145.600 75 hurdat_epa main 969 938 O________OO___ hurdat_epa EP011957 18.8000 -145.600 HU 75 1 18.8000 -145.600 TC 45 18.8000 -145.600 4 7 278
1957196N12252 1957 38 EP CP KANOA 1957-07-24 15:00:00 TS 18.8471 -145.902 main 938 905 P________PP___ EP011957 18.8423 -145.908 HU 75 1 18.8423 -145.908 TC 42 18.8663 -145.878 4 6 281
1957196N12252 1957 38 EP CP KANOA 1957-07-24 18:00:00 TS 18.9080 -146.189 75 hurdat_epa main 905 873 O________OP___ hurdat_epa EP011957 18.9000 -146.200 HU 75 1 18.9000 -146.200 TC 40 18.9401 -146.146 4 6 285
1957196N12252 1957 38 EP CP KANOA 1957-07-24 21:00:00 TS 18.9974 -146.479 main 873 830 P________PP___ EP011957 18.9920 -146.483 HU 75 1 18.9920 -146.483 TC 37 19.0190 -146.465 4 7 286
1957196N12252 1957 38 EP CP KANOA 1957-07-25 00:00:00 TS 19.1000 -146.900 75 hurdat_epa main 830 766 O________OO___ hurdat_epa EP011957 19.1000 -146.900 HU 75 1 19.1000 -146.900 TC 35 19.1000 -146.900 4 11 281
1957196N12252 1957 38 EP CP KANOA 1957-07-25 03:00:00 TS 19.2011 -147.569 main 756 682 P________PP___ EP011957 19.2078 -147.590 HU 75 1 19.2078 -147.590 TC 32 19.1745 -147.484 4 14 278
1957196N12252 1957 38 EP CP KANOA 1957-07-25 06:00:00 TS 19.2898 -148.358 75 hurdat_epa main 671 598 O________OP___ hurdat_epa EP011957 19.3000 -148.400 HU 75 1 19.3000 -148.400 TC 30 19.2489 -148.191 4 15 276
1957196N12252 1957 38 EP CP KANOA 1957-07-25 09:00:00 TS 19.3502 -149.097 main 597 513 P________PP___ EP011957 19.3568 -149.120 HU 75 1 19.3568 -149.120 TC 27 19.3238 -149.003 4 15 274
1957196N12252 1957 38 EP CP KANOA 1957-07-25 12:00:00 TS 19.4000 -149.900 75 hurdat_epa main 513 419 O________OO___ hurdat_epa EP011957 19.4000 -149.900 HU 75 1 19.4000 -149.900 TC 25 19.4000 -149.900 4 16 274
1957196N12252 1957 38 EP CP KANOA 1957-07-25 15:00:00 TS 19.4492 -150.811 main 419 314 P________PP___ EP011957 19.4421 -150.798 HU 75 1 19.4421 -150.798 TC 25 19.4778 -150.865 4 18 274
1957196N12252 1957 38 EP CP KANOA 1957-07-25 18:00:00 TS 19.5110 -151.816 75 hurdat_epa main 314 209 O________OP___ hurdat_epa EP011957 19.5000 -151.800 HU 75 1 19.5000 -151.800 TC 25 19.5552 -151.881 4 20 274
1957196N12252 1957 38 EP CP KANOA 1957-07-25 21:00:00 TS 19.5991 -152.890 main 199 96 P________PP___ EP011957 19.5914 -152.880 HU 75 1 19.5914 -152.880 TC 22 19.6300 -152.932 4 21 275
1957196N12252 1957 38 EP CP KANOA 1957-07-26 00:00:00 TS 19.7000 -154.000 75 hurdat_epa main 86 O________OO___ hurdat_epa EP011957 19.7000 -154.000 HU 75 1 19.7000 -154.000 TC 20 19.7000 -154.000 4 21 276

IBTrACS Databaseについて

本データベースは、米国NOAAが公開する1842年以降の世界の熱帯低気圧のベストトラックデータアーカイブInternational Best Track Archive for Climate Stewardship (IBTrACS)を、ウェブで閲覧しやすい形式に変換したものです。

最終更新日:2021-11-26